sensor_id;sensor_type;location;lat;lon;timestamp;P1;durP1;ratioP1;P2;durP2;ratioP2
77800;SDS011;66991;50.058;14.454;2023-11-19T00:01:54;9.23;;;5.00;;
77800;SDS011;66991;50.058;14.454;2023-11-19T00:04:20;10.70;;;5.22;;
77800;SDS011;66991;50.058;14.454;2023-11-19T00:06:45;10.52;;;4.88;;
77800;SDS011;66991;50.058;14.454;2023-11-19T00:09:10;11.55;;;4.68;;
77800;SDS011;66991;50.058;14.454;2023-11-19T00:11:36;9.32;;;4.43;;
77800;SDS011;66991;50.058;14.454;2023-11-19T00:14:02;7.85;;;4.45;;
77800;SDS011;66991;50.058;14.454;2023-11-19T00:16:28;7.10;;;4.15;;
77800;SDS011;66991;50.058;14.454;2023-11-19T00:18:54;8.95;;;4.25;;
77800;SDS011;66991;50.058;14.454;2023-11-19T00:21:19;6.93;;;4.10;;
77800;SDS011;66991;50.058;14.454;2023-11-19T00:23:44;9.32;;;4.88;;
77800;SDS011;66991;50.058;14.454;2023-11-19T00:26:13;7.93;;;4.47;;
77800;SDS011;66991;50.058;14.454;2023-11-19T00:28:40;9.57;;;5.07;;
77800;SDS011;66991;50.058;14.454;2023-11-19T00:31:05;8.90;;;4.38;;
77800;SDS011;66991;50.058;14.454;2023-11-19T00:33:30;8.10;;;4.68;;
77800;SDS011;66991;50.058;14.454;2023-11-19T00:35:56;12.18;;;5.63;;
77800;SDS011;66991;50.058;14.454;2023-11-19T00:38:21;9.23;;;4.55;;
77800;SDS011;66991;50.058;14.454;2023-11-19T00:40:48;9.35;;;4.60;;
77800;SDS011;66991;50.058;14.454;2023-11-19T00:43:13;10.05;;;4.30;;
77800;SDS011;66991;50.058;14.454;2023-11-19T00:45:38;7.70;;;4.57;;
77800;SDS011;66991;50.058;14.454;2023-11-19T00:48:04;8.70;;;4.68;;
77800;SDS011;66991;50.058;14.454;2023-11-19T00:50:29;10.15;;;5.25;;
77800;SDS011;66991;50.058;14.454;2023-11-19T00:52:56;9.02;;;5.03;;
77800;SDS011;66991;50.058;14.454;2023-11-19T00:55:21;8.75;;;4.75;;
77800;SDS011;66991;50.058;14.454;2023-11-19T00:57:46;11.40;;;5.05;;
77800;SDS011;66991;50.058;14.454;2023-11-19T01:00:12;11.30;;;5.10;;
77800;SDS011;66991;50.058;14.454;2023-11-19T01:02:44;9.35;;;4.53;;
77800;SDS011;66991;50.058;14.454;2023-11-19T01:05:14;9.57;;;4.57;;
77800;SDS011;66991;50.058;14.454;2023-11-19T01:07:40;7.45;;;4.07;;
77800;SDS011;66991;50.058;14.454;2023-11-19T01:10:05;11.70;;;5.32;;
77800;SDS011;66991;50.058;14.454;2023-11-19T01:12:33;7.22;;;3.80;;
77800;SDS011;66991;50.058;14.454;2023-11-19T01:14:58;8.55;;;3.90;;
77800;SDS011;66991;50.058;14.454;2023-11-19T01:17:24;9.20;;;4.45;;
77800;SDS011;66991;50.058;14.454;2023-11-19T01:19:49;8.52;;;4.50;;
77800;SDS011;66991;50.058;14.454;2023-11-19T01:22:15;10.40;;;4.45;;
77800;SDS011;66991;50.058;14.454;2023-11-19T01:24:40;7.93;;;4.35;;
77800;SDS011;66991;50.058;14.454;2023-11-19T01:27:06;8.63;;;4.45;;
77800;SDS011;66991;50.058;14.454;2023-11-19T01:29:31;8.68;;;4.32;;
77800;SDS011;66991;50.058;14.454;2023-11-19T01:31:56;9.30;;;4.18;;
77800;SDS011;66991;50.058;14.454;2023-11-19T01:34:22;8.40;;;4.25;;
77800;SDS011;66991;50.058;14.454;2023-11-19T01:36:47;6.95;;;3.80;;
77800;SDS011;66991;50.058;14.454;2023-11-19T01:39:13;6.85;;;4.18;;
77800;SDS011;66991;50.058;14.454;2023-11-19T01:41:41;10.73;;;4.35;;
77800;SDS011;66991;50.058;14.454;2023-11-19T01:44:06;8.75;;;4.20;;
77800;SDS011;66991;50.058;14.454;2023-11-19T01:46:31;9.07;;;4.05;;
77800;SDS011;66991;50.058;14.454;2023-11-19T01:49:00;9.15;;;3.95;;
77800;SDS011;66991;50.058;14.454;2023-11-19T01:51:27;9.18;;;4.20;;
77800;SDS011;66991;50.058;14.454;2023-11-19T01:53:52;6.18;;;3.38;;
77800;SDS011;66991;50.058;14.454;2023-11-19T01:56:18;11.38;;;4.25;;
77800;SDS011;66991;50.058;14.454;2023-11-19T01:58:43;7.35;;;3.92;;
77800;SDS011;66991;50.058;14.454;2023-11-19T02:01:12;6.47;;;3.30;;
77800;SDS011;66991;50.058;14.454;2023-11-19T02:03:38;6.25;;;3.55;;
77800;SDS011;66991;50.058;14.454;2023-11-19T02:06:04;8.77;;;3.55;;
77800;SDS011;66991;50.058;14.454;2023-11-19T02:08:30;8.65;;;4.00;;
77800;SDS011;66991;50.058;14.454;2023-11-19T02:10:55;6.78;;;3.47;;
77800;SDS011;66991;50.058;14.454;2023-11-19T02:13:22;9.65;;;3.90;;
77800;SDS011;66991;50.058;14.454;2023-11-19T02:15:50;8.77;;;4.10;;
77800;SDS011;66991;50.058;14.454;2023-11-19T02:20:48;5.95;;;3.63;;
77800;SDS011;66991;50.058;14.454;2023-11-19T02:23:14;8.80;;;4.13;;
77800;SDS011;66991;50.058;14.454;2023-11-19T02:25:40;6.80;;;3.80;;
77800;SDS011;66991;50.058;14.454;2023-11-19T02:28:05;8.75;;;4.43;;
77800;SDS011;66991;50.058;14.454;2023-11-19T02:30:31;11.20;;;4.60;;
77800;SDS011;66991;50.058;14.454;2023-11-19T02:32:57;9.93;;;4.60;;
77800;SDS011;66991;50.058;14.454;2023-11-19T02:35:24;7.63;;;4.25;;
77800;SDS011;66991;50.058;14.454;2023-11-19T02:37:50;8.25;;;3.95;;
77800;SDS011;66991;50.058;14.454;2023-11-19T02:40:16;7.32;;;3.88;;
77800;SDS011;66991;50.058;14.454;2023-11-19T02:42:42;7.85;;;4.03;;
77800;SDS011;66991;50.058;14.454;2023-11-19T02:45:08;9.93;;;4.57;;
77800;SDS011;66991;50.058;14.454;2023-11-19T02:47:38;6.68;;;3.83;;
77800;SDS011;66991;50.058;14.454;2023-11-19T02:50:04;8.27;;;3.60;;
77800;SDS011;66991;50.058;14.454;2023-11-19T02:52:32;7.80;;;4.05;;
77800;SDS011;66991;50.058;14.454;2023-11-19T02:55:02;10.57;;;4.65;;
77800;SDS011;66991;50.058;14.454;2023-11-19T02:57:30;7.32;;;3.90;;
77800;SDS011;66991;50.058;14.454;2023-11-19T02:59:57;8.23;;;4.35;;
77800;SDS011;66991;50.058;14.454;2023-11-19T03:02:23;10.27;;;4.18;;
77800;SDS011;66991;50.058;14.454;2023-11-19T03:04:51;8.73;;;4.40;;
77800;SDS011;66991;50.058;14.454;2023-11-19T03:07:16;9.32;;;4.63;;
77800;SDS011;66991;50.058;14.454;2023-11-19T03:09:42;12.13;;;4.45;;
77800;SDS011;66991;50.058;14.454;2023-11-19T03:12:09;7.15;;;4.13;;
77800;SDS011;66991;50.058;14.454;2023-11-19T03:14:34;9.93;;;4.22;;
77800;SDS011;66991;50.058;14.454;2023-11-19T03:16:59;10.02;;;4.72;;
77800;SDS011;66991;50.058;14.454;2023-11-19T03:19:25;9.65;;;5.13;;
77800;SDS011;66991;50.058;14.454;2023-11-19T03:21:51;7.43;;;3.83;;
77800;SDS011;66991;50.058;14.454;2023-11-19T03:24:17;8.15;;;4.38;;
77800;SDS011;66991;50.058;14.454;2023-11-19T03:26:42;8.57;;;4.32;;
77800;SDS011;66991;50.058;14.454;2023-11-19T03:29:08;11.50;;;4.45;;
77800;SDS011;66991;50.058;14.454;2023-11-19T03:31:33;10.88;;;4.47;;
77800;SDS011;66991;50.058;14.454;2023-11-19T03:33:58;10.05;;;4.18;;
77800;SDS011;66991;50.058;14.454;2023-11-19T03:36:24;7.22;;;4.03;;
77800;SDS011;66991;50.058;14.454;2023-11-19T03:38:49;8.23;;;4.20;;
77800;SDS011;66991;50.058;14.454;2023-11-19T03:41:14;9.50;;;5.03;;
77800;SDS011;66991;50.058;14.454;2023-11-19T03:43:41;7.95;;;4.47;;
77800;SDS011;66991;50.058;14.454;2023-11-19T03:46:16;7.97;;;4.03;;
77800;SDS011;66991;50.058;14.454;2023-11-19T03:48:42;7.95;;;3.58;;
77800;SDS011;66991;50.058;14.454;2023-11-19T03:51:08;9.32;;;3.90;;
77800;SDS011;66991;50.058;14.454;2023-11-19T03:53:33;6.82;;;3.85;;
77800;SDS011;66991;50.058;14.454;2023-11-19T03:55:59;5.53;;;3.30;;
77800;SDS011;66991;50.058;14.454;2023-11-19T03:58:24;8.20;;;3.78;;
77800;SDS011;66991;50.058;14.454;2023-11-19T04:00:49;5.50;;;3.38;;
77800;SDS011;66991;50.058;14.454;2023-11-19T04:03:15;5.30;;;3.28;;
77800;SDS011;66991;50.058;14.454;2023-11-19T04:05:40;7.20;;;3.15;;
77800;SDS011;66991;50.058;14.454;2023-11-19T04:08:05;7.97;;;3.88;;
77800;SDS011;66991;50.058;14.454;2023-11-19T04:10:31;5.57;;;3.42;;
77800;SDS011;66991;50.058;14.454;2023-11-19T04:12:56;5.97;;;3.25;;
77800;SDS011;66991;50.058;14.454;2023-11-19T04:15:21;7.35;;;3.35;;
77800;SDS011;66991;50.058;14.454;2023-11-19T04:17:47;6.28;;;3.50;;
77800;SDS011;66991;50.058;14.454;2023-11-19T04:20:12;6.68;;;3.05;;
77800;SDS011;66991;50.058;14.454;2023-11-19T04:22:38;6.13;;;3.45;;
77800;SDS011;66991;50.058;14.454;2023-11-19T04:25:04;6.00;;;3.17;;
77800;SDS011;66991;50.058;14.454;2023-11-19T04:27:30;5.85;;;3.35;;
77800;SDS011;66991;50.058;14.454;2023-11-19T04:29:55;8.23;;;3.53;;
77800;SDS011;66991;50.058;14.454;2023-11-19T04:32:21;6.55;;;3.58;;
77800;SDS011;66991;50.058;14.454;2023-11-19T04:34:46;6.03;;;3.05;;
77800;SDS011;66991;50.058;14.454;2023-11-19T04:37:12;5.75;;;3.40;;
77800;SDS011;66991;50.058;14.454;2023-11-19T04:39:37;7.55;;;3.55;;
77800;SDS011;66991;50.058;14.454;2023-11-19T04:42:03;5.78;;;3.28;;
77800;SDS011;66991;50.058;14.454;2023-11-19T04:44:29;5.13;;;2.78;;
77800;SDS011;66991;50.058;14.454;2023-11-19T04:46:54;8.00;;;3.58;;
77800;SDS011;66991;50.058;14.454;2023-11-19T04:49:20;6.60;;;3.08;;
77800;SDS011;66991;50.058;14.454;2023-11-19T04:51:45;6.15;;;3.22;;
77800;SDS011;66991;50.058;14.454;2023-11-19T04:54:14;6.88;;;3.70;;
77800;SDS011;66991;50.058;14.454;2023-11-19T04:56:39;5.13;;;3.10;;
77800;SDS011;66991;50.058;14.454;2023-11-19T04:59:05;6.15;;;3.80;;
77800;SDS011;66991;50.058;14.454;2023-11-19T05:01:34;6.70;;;3.40;;
77800;SDS011;66991;50.058;14.454;2023-11-19T05:04:00;6.30;;;3.15;;
77800;SDS011;66991;50.058;14.454;2023-11-19T05:06:30;5.20;;;3.05;;
77800;SDS011;66991;50.058;14.454;2023-11-19T05:08:56;6.68;;;3.08;;
77800;SDS011;66991;50.058;14.454;2023-11-19T05:11:23;5.70;;;3.00;;
77800;SDS011;66991;50.058;14.454;2023-11-19T05:13:48;5.20;;;3.00;;
77800;SDS011;66991;50.058;14.454;2023-11-19T05:16:13;5.57;;;3.22;;
77800;SDS011;66991;50.058;14.454;2023-11-19T05:18:40;4.75;;;2.95;;
77800;SDS011;66991;50.058;14.454;2023-11-19T05:21:05;6.75;;;3.30;;
77800;SDS011;66991;50.058;14.454;2023-11-19T05:23:32;5.28;;;2.83;;
77800;SDS011;66991;50.058;14.454;2023-11-19T05:25:58;6.88;;;3.72;;
77800;SDS011;66991;50.058;14.454;2023-11-19T05:28:24;5.85;;;3.47;;
77800;SDS011;66991;50.058;14.454;2023-11-19T05:30:51;5.22;;;2.75;;
77800;SDS011;66991;50.058;14.454;2023-11-19T05:33:16;5.80;;;3.58;;
77800;SDS011;66991;50.058;14.454;2023-11-19T05:35:41;5.47;;;3.17;;
77800;SDS011;66991;50.058;14.454;2023-11-19T05:38:07;6.95;;;3.58;;
77800;SDS011;66991;50.058;14.454;2023-11-19T05:40:32;6.88;;;3.20;;
77800;SDS011;66991;50.058;14.454;2023-11-19T05:42:57;6.05;;;3.42;;
77800;SDS011;66991;50.058;14.454;2023-11-19T05:45:23;7.13;;;3.40;;
77800;SDS011;66991;50.058;14.454;2023-11-19T05:47:48;9.13;;;3.42;;
77800;SDS011;66991;50.058;14.454;2023-11-19T05:50:14;5.82;;;3.55;;
77800;SDS011;66991;50.058;14.454;2023-11-19T05:52:39;6.60;;;3.45;;
77800;SDS011;66991;50.058;14.454;2023-11-19T05:55:04;6.65;;;3.42;;
77800;SDS011;66991;50.058;14.454;2023-11-19T05:57:34;8.25;;;3.60;;
77800;SDS011;66991;50.058;14.454;2023-11-19T06:00:00;8.60;;;4.32;;
77800;SDS011;66991;50.058;14.454;2023-11-19T06:02:25;6.43;;;3.38;;
77800;SDS011;66991;50.058;14.454;2023-11-19T06:04:52;10.13;;;3.30;;
77800;SDS011;66991;50.058;14.454;2023-11-19T06:07:18;5.28;;;3.45;;
77800;SDS011;66991;50.058;14.454;2023-11-19T06:09:43;7.10;;;3.78;;
77800;SDS011;66991;50.058;14.454;2023-11-19T06:12:09;7.53;;;3.65;;
77800;SDS011;66991;50.058;14.454;2023-11-19T06:14:34;6.25;;;3.65;;
77800;SDS011;66991;50.058;14.454;2023-11-19T06:16:59;6.55;;;3.63;;
77800;SDS011;66991;50.058;14.454;2023-11-19T06:19:25;6.50;;;3.83;;
77800;SDS011;66991;50.058;14.454;2023-11-19T06:21:50;8.23;;;4.43;;
77800;SDS011;66991;50.058;14.454;2023-11-19T06:24:16;9.77;;;4.18;;
77800;SDS011;66991;50.058;14.454;2023-11-19T06:26:41;9.10;;;5.22;;
77800;SDS011;66991;50.058;14.454;2023-11-19T06:29:06;6.70;;;4.10;;
77800;SDS011;66991;50.058;14.454;2023-11-19T06:31:32;9.60;;;4.07;;
77800;SDS011;66991;50.058;14.454;2023-11-19T06:33:57;8.52;;;4.15;;
77800;SDS011;66991;50.058;14.454;2023-11-19T06:36:22;7.30;;;3.40;;
77800;SDS011;66991;50.058;14.454;2023-11-19T06:38:48;6.40;;;3.88;;
77800;SDS011;66991;50.058;14.454;2023-11-19T06:41:13;7.57;;;3.50;;
77800;SDS011;66991;50.058;14.454;2023-11-19T06:43:39;6.55;;;3.22;;
77800;SDS011;66991;50.058;14.454;2023-11-19T06:46:04;8.25;;;3.63;;
77800;SDS011;66991;50.058;14.454;2023-11-19T06:48:34;7.43;;;3.15;;
77800;SDS011;66991;50.058;14.454;2023-11-19T06:51:00;8.20;;;3.55;;
77800;SDS011;66991;50.058;14.454;2023-11-19T06:53:25;4.95;;;2.80;;
77800;SDS011;66991;50.058;14.454;2023-11-19T06:55:53;7.50;;;3.05;;
77800;SDS011;66991;50.058;14.454;2023-11-19T06:58:18;5.90;;;3.22;;
77800;SDS011;66991;50.058;14.454;2023-11-19T07:00:44;4.85;;;2.92;;
77800;SDS011;66991;50.058;14.454;2023-11-19T07:03:10;5.72;;;3.15;;
77800;SDS011;66991;50.058;14.454;2023-11-19T07:05:36;5.07;;;2.83;;
77800;SDS011;66991;50.058;14.454;2023-11-19T07:08:03;4.80;;;2.58;;
77800;SDS011;66991;50.058;14.454;2023-11-19T07:10:29;5.80;;;3.08;;
77800;SDS011;66991;50.058;14.454;2023-11-19T07:12:55;5.93;;;3.17;;
77800;SDS011;66991;50.058;14.454;2023-11-19T07:15:21;5.60;;;2.65;;
77800;SDS011;66991;50.058;14.454;2023-11-19T07:17:46;6.32;;;3.20;;
77800;SDS011;66991;50.058;14.454;2023-11-19T07:20:13;3.95;;;2.42;;
77800;SDS011;66991;50.058;14.454;2023-11-19T07:22:41;3.92;;;2.20;;
77800;SDS011;66991;50.058;14.454;2023-11-19T07:25:13;5.07;;;3.05;;
77800;SDS011;66991;50.058;14.454;2023-11-19T07:27:40;5.50;;;2.45;;
77800;SDS011;66991;50.058;14.454;2023-11-19T07:30:06;5.93;;;2.55;;
77800;SDS011;66991;50.058;14.454;2023-11-19T07:32:35;4.40;;;2.30;;
77800;SDS011;66991;50.058;14.454;2023-11-19T07:35:00;4.72;;;2.33;;
77800;SDS011;66991;50.058;14.454;2023-11-19T07:37:25;3.70;;;1.95;;
77800;SDS011;66991;50.058;14.454;2023-11-19T07:39:51;4.60;;;2.70;;
77800;SDS011;66991;50.058;14.454;2023-11-19T07:42:17;4.80;;;1.98;;
77800;SDS011;66991;50.058;14.454;2023-11-19T07:44:43;5.20;;;2.60;;
77800;SDS011;66991;50.058;14.454;2023-11-19T07:47:09;4.53;;;2.42;;
77800;SDS011;66991;50.058;14.454;2023-11-19T07:49:34;5.40;;;2.75;;
77800;SDS011;66991;50.058;14.454;2023-11-19T07:51:59;5.50;;;2.40;;
77800;SDS011;66991;50.058;14.454;2023-11-19T07:54:25;6.13;;;2.45;;
77800;SDS011;66991;50.058;14.454;2023-11-19T07:56:50;5.13;;;2.53;;
77800;SDS011;66991;50.058;14.454;2023-11-19T07:59:16;5.43;;;2.40;;
77800;SDS011;66991;50.058;14.454;2023-11-19T08:01:41;4.13;;;2.50;;
77800;SDS011;66991;50.058;14.454;2023-11-19T08:04:06;4.45;;;2.83;;
77800;SDS011;66991;50.058;14.454;2023-11-19T08:06:32;5.93;;;3.17;;
77800;SDS011;66991;50.058;14.454;2023-11-19T08:08:57;5.95;;;2.50;;
77800;SDS011;66991;50.058;14.454;2023-11-19T08:11:23;5.35;;;2.90;;
77800;SDS011;66991;50.058;14.454;2023-11-19T08:13:49;4.32;;;2.60;;
77800;SDS011;66991;50.058;14.454;2023-11-19T08:16:14;6.60;;;3.03;;
77800;SDS011;66991;50.058;14.454;2023-11-19T08:18:41;6.88;;;3.42;;
77800;SDS011;66991;50.058;14.454;2023-11-19T08:21:08;5.50;;;3.10;;
77800;SDS011;66991;50.058;14.454;2023-11-19T08:23:33;4.65;;;2.72;;
77800;SDS011;66991;50.058;14.454;2023-11-19T08:25:59;5.72;;;3.10;;
77800;SDS011;66991;50.058;14.454;2023-11-19T08:28:24;4.90;;;2.58;;
77800;SDS011;66991;50.058;14.454;2023-11-19T08:30:50;5.38;;;2.33;;
77800;SDS011;66991;50.058;14.454;2023-11-19T08:33:15;6.57;;;3.30;;
77800;SDS011;66991;50.058;14.454;2023-11-19T08:35:41;4.75;;;2.80;;
77800;SDS011;66991;50.058;14.454;2023-11-19T08:38:06;5.47;;;2.95;;
77800;SDS011;66991;50.058;14.454;2023-11-19T08:40:32;5.88;;;2.92;;
77800;SDS011;66991;50.058;14.454;2023-11-19T08:42:57;5.15;;;2.75;;
77800;SDS011;66991;50.058;14.454;2023-11-19T08:45:23;5.32;;;2.90;;
77800;SDS011;66991;50.058;14.454;2023-11-19T08:47:48;6.03;;;3.13;;
77800;SDS011;66991;50.058;14.454;2023-11-19T08:50:13;6.47;;;2.95;;
77800;SDS011;66991;50.058;14.454;2023-11-19T08:52:39;5.53;;;3.30;;
77800;SDS011;66991;50.058;14.454;2023-11-19T08:55:04;6.28;;;3.00;;
77800;SDS011;66991;50.058;14.454;2023-11-19T08:57:30;4.72;;;2.83;;
77800;SDS011;66991;50.058;14.454;2023-11-19T08:59:58;5.60;;;2.83;;
77800;SDS011;66991;50.058;14.454;2023-11-19T09:02:24;5.45;;;2.67;;
77800;SDS011;66991;50.058;14.454;2023-11-19T09:04:49;5.07;;;2.85;;
77800;SDS011;66991;50.058;14.454;2023-11-19T09:07:15;6.70;;;2.92;;
77800;SDS011;66991;50.058;14.454;2023-11-19T09:09:41;5.97;;;3.25;;
77800;SDS011;66991;50.058;14.454;2023-11-19T09:12:06;6.72;;;3.00;;
77800;SDS011;66991;50.058;14.454;2023-11-19T09:14:32;4.82;;;2.72;;
77800;SDS011;66991;50.058;14.454;2023-11-19T09:16:58;5.85;;;3.00;;
77800;SDS011;66991;50.058;14.454;2023-11-19T09:19:24;6.07;;;3.22;;
77800;SDS011;66991;50.058;14.454;2023-11-19T09:21:49;7.03;;;3.72;;
77800;SDS011;66991;50.058;14.454;2023-11-19T09:24:15;8.77;;;4.10;;
77800;SDS011;66991;50.058;14.454;2023-11-19T09:26:41;7.20;;;4.10;;
77800;SDS011;66991;50.058;14.454;2023-11-19T09:29:07;8.20;;;3.90;;
77800;SDS011;66991;50.058;14.454;2023-11-19T09:31:33;7.90;;;3.53;;
77800;SDS011;66991;50.058;14.454;2023-11-19T09:33:58;6.93;;;3.80;;
77800;SDS011;66991;50.058;14.454;2023-11-19T09:36:23;6.22;;;3.45;;
77800;SDS011;66991;50.058;14.454;2023-11-19T09:38:49;6.10;;;3.55;;
77800;SDS011;66991;50.058;14.454;2023-11-19T09:41:14;5.80;;;3.15;;
77800;SDS011;66991;50.058;14.454;2023-11-19T09:43:40;5.45;;;3.22;;
77800;SDS011;66991;50.058;14.454;2023-11-19T09:46:07;4.85;;;3.05;;
77800;SDS011;66991;50.058;14.454;2023-11-19T09:48:36;11.13;;;3.58;;
77800;SDS011;66991;50.058;14.454;2023-11-19T09:51:02;6.32;;;2.90;;
77800;SDS011;66991;50.058;14.454;2023-11-19T09:53:28;5.93;;;3.60;;
77800;SDS011;66991;50.058;14.454;2023-11-19T09:55:54;5.45;;;3.15;;
77800;SDS011;66991;50.058;14.454;2023-11-19T09:58:20;5.32;;;3.30;;
77800;SDS011;66991;50.058;14.454;2023-11-19T10:00:45;5.38;;;3.20;;
77800;SDS011;66991;50.058;14.454;2023-11-19T10:03:11;5.25;;;2.97;;
77800;SDS011;66991;50.058;14.454;2023-11-19T10:05:39;5.85;;;3.53;;
77800;SDS011;66991;50.058;14.454;2023-11-19T10:08:05;5.57;;;3.40;;
77800;SDS011;66991;50.058;14.454;2023-11-19T10:10:31;4.82;;;3.30;;
77800;SDS011;66991;50.058;14.454;2023-11-19T10:12:57;6.40;;;3.40;;
77800;SDS011;66991;50.058;14.454;2023-11-19T10:15:23;5.28;;;2.95;;
77800;SDS011;66991;50.058;14.454;2023-11-19T10:17:58;4.55;;;2.78;;
77800;SDS011;66991;50.058;14.454;2023-11-19T10:20:24;4.57;;;2.70;;
77800;SDS011;66991;50.058;14.454;2023-11-19T10:22:56;5.95;;;2.72;;
77800;SDS011;66991;50.058;14.454;2023-11-19T10:25:25;6.80;;;2.83;;
77800;SDS011;66991;50.058;14.454;2023-11-19T10:27:51;4.82;;;3.03;;
77800;SDS011;66991;50.058;14.454;2023-11-19T10:30:17;7.07;;;2.92;;
77800;SDS011;66991;50.058;14.454;2023-11-19T10:33:08;4.82;;;3.00;;
77800;SDS011;66991;50.058;14.454;2023-11-19T10:35:55;5.05;;;2.45;;
77800;SDS011;66991;50.058;14.454;2023-11-19T10:38:27;4.50;;;2.50;;
77800;SDS011;66991;50.058;14.454;2023-11-19T10:40:53;6.20;;;2.67;;
77800;SDS011;66991;50.058;14.454;2023-11-19T10:43:20;4.80;;;2.70;;
77800;SDS011;66991;50.058;14.454;2023-11-19T10:45:47;4.47;;;2.30;;
77800;SDS011;66991;50.058;14.454;2023-11-19T10:48:13;4.30;;;2.17;;
77800;SDS011;66991;50.058;14.454;2023-11-19T10:50:39;3.35;;;1.80;;
77800;SDS011;66991;50.058;14.454;2023-11-19T10:53:06;4.68;;;2.22;;
77800;SDS011;66991;50.058;14.454;2023-11-19T10:55:33;4.10;;;1.92;;
77800;SDS011;66991;50.058;14.454;2023-11-19T10:58:01;4.65;;;1.98;;
77800;SDS011;66991;50.058;14.454;2023-11-19T11:00:34;3.97;;;1.83;;
77800;SDS011;66991;50.058;14.454;2023-11-19T11:03:05;3.47;;;2.00;;
77800;SDS011;66991;50.058;14.454;2023-11-19T11:05:35;5.35;;;1.98;;
77800;SDS011;66991;50.058;14.454;2023-11-19T11:08:02;3.30;;;1.77;;
77800;SDS011;66991;50.058;14.454;2023-11-19T11:10:29;2.65;;;1.52;;
77800;SDS011;66991;50.058;14.454;2023-11-19T11:12:59;2.75;;;1.10;;
77800;SDS011;66991;50.058;14.454;2023-11-19T11:15:26;2.85;;;0.90;;
77800;SDS011;66991;50.058;14.454;2023-11-19T11:17:54;1.98;;;1.00;;
77800;SDS011;66991;50.058;14.454;2023-11-19T11:20:32;1.80;;;0.82;;
77800;SDS011;66991;50.058;14.454;2023-11-19T11:28:10;1.73;;;0.70;;
77800;SDS011;66991;50.058;14.454;2023-11-19T11:38:44;2.15;;;0.75;;
77800;SDS011;66991;50.058;14.454;2023-11-19T11:43:45;2.17;;;0.80;;
77800;SDS011;66991;50.058;14.454;2023-11-19T11:49:02;1.67;;;0.77;;
77800;SDS011;66991;50.058;14.454;2023-11-19T12:02:31;0.95;;;0.50;;
77800;SDS011;66991;50.058;14.454;2023-11-19T12:04:56;0.80;;;0.50;;
77800;SDS011;66991;50.058;14.454;2023-11-19T12:07:22;3.88;;;0.93;;
77800;SDS011;66991;50.058;14.454;2023-11-19T12:09:51;1.85;;;0.82;;
77800;SDS011;66991;50.058;14.454;2023-11-19T12:12:22;1.50;;;0.77;;
77800;SDS011;66991;50.058;14.454;2023-11-19T12:20:07;2.45;;;0.93;;
77800;SDS011;66991;50.058;14.454;2023-11-19T12:22:35;1.27;;;0.60;;
77800;SDS011;66991;50.058;14.454;2023-11-19T12:25:02;2.28;;;1.08;;
77800;SDS011;66991;50.058;14.454;2023-11-19T12:27:30;5.88;;;1.00;;
77800;SDS011;66991;50.058;14.454;2023-11-19T12:29:55;3.08;;;0.70;;
77800;SDS011;66991;50.058;14.454;2023-11-19T12:32:22;3.03;;;0.82;;
77800;SDS011;66991;50.058;14.454;2023-11-19T12:34:47;2.47;;;0.98;;
77800;SDS011;66991;50.058;14.454;2023-11-19T12:37:13;3.92;;;1.13;;
77800;SDS011;66991;50.058;14.454;2023-11-19T12:39:38;1.80;;;0.98;;
77800;SDS011;66991;50.058;14.454;2023-11-19T12:42:03;2.55;;;1.05;;
77800;SDS011;66991;50.058;14.454;2023-11-19T12:44:30;2.15;;;1.20;;
77800;SDS011;66991;50.058;14.454;2023-11-19T12:46:59;2.88;;;0.70;;
77800;SDS011;66991;50.058;14.454;2023-11-19T12:49:36;4.65;;;0.80;;
77800;SDS011;66991;50.058;14.454;2023-11-19T12:52:01;2.13;;;0.80;;
77800;SDS011;66991;50.058;14.454;2023-11-19T12:54:34;1.70;;;0.85;;
77800;SDS011;66991;50.058;14.454;2023-11-19T12:57:00;2.35;;;0.93;;
77800;SDS011;66991;50.058;14.454;2023-11-19T12:59:25;2.53;;;0.93;;
77800;SDS011;66991;50.058;14.454;2023-11-19T13:01:58;4.25;;;1.13;;
77800;SDS011;66991;50.058;14.454;2023-11-19T13:04:27;2.35;;;0.90;;
77800;SDS011;66991;50.058;14.454;2023-11-19T13:06:53;2.63;;;1.08;;
77800;SDS011;66991;50.058;14.454;2023-11-19T13:09:25;11.43;;;1.20;;
77800;SDS011;66991;50.058;14.454;2023-11-19T13:11:51;1.88;;;0.80;;
77800;SDS011;66991;50.058;14.454;2023-11-19T13:14:18;5.13;;;0.80;;
77800;SDS011;66991;50.058;14.454;2023-11-19T13:16:44;5.28;;;1.60;;
77800;SDS011;66991;50.058;14.454;2023-11-19T13:19:11;2.80;;;1.50;;
77800;SDS011;66991;50.058;14.454;2023-11-19T13:21:37;2.55;;;1.23;;
77800;SDS011;66991;50.058;14.454;2023-11-19T13:24:04;3.85;;;1.10;;
77800;SDS011;66991;50.058;14.454;2023-11-19T13:26:32;3.97;;;1.20;;
77800;SDS011;66991;50.058;14.454;2023-11-19T13:28:58;2.50;;;1.02;;
77800;SDS011;66991;50.058;14.454;2023-11-19T13:31:23;2.50;;;1.20;;
77800;SDS011;66991;50.058;14.454;2023-11-19T13:33:49;3.35;;;1.42;;
77800;SDS011;66991;50.058;14.454;2023-11-19T13:36:14;3.88;;;1.23;;
77800;SDS011;66991;50.058;14.454;2023-11-19T13:38:40;3.08;;;1.30;;
77800;SDS011;66991;50.058;14.454;2023-11-19T13:41:07;2.67;;;1.30;;
77800;SDS011;66991;50.058;14.454;2023-11-19T13:43:35;3.22;;;1.10;;
77800;SDS011;66991;50.058;14.454;2023-11-19T13:46:00;1.73;;;0.88;;
77800;SDS011;66991;50.058;14.454;2023-11-19T13:48:26;5.35;;;1.73;;
77800;SDS011;66991;50.058;14.454;2023-11-19T13:50:53;2.95;;;1.70;;
77800;SDS011;66991;50.058;14.454;2023-11-19T13:53:19;4.38;;;1.42;;
77800;SDS011;66991;50.058;14.454;2023-11-19T13:55:44;3.10;;;1.50;;
77800;SDS011;66991;50.058;14.454;2023-11-19T13:58:10;2.80;;;1.55;;
77800;SDS011;66991;50.058;14.454;2023-11-19T14:00:35;4.32;;;1.20;;
77800;SDS011;66991;50.058;14.454;2023-11-19T14:03:01;3.22;;;1.40;;
77800;SDS011;66991;50.058;14.454;2023-11-19T14:05:27;3.78;;;1.20;;
77800;SDS011;66991;50.058;14.454;2023-11-19T14:07:52;2.20;;;1.10;;
77800;SDS011;66991;50.058;14.454;2023-11-19T14:10:18;2.72;;;1.23;;
77800;SDS011;66991;50.058;14.454;2023-11-19T14:12:44;3.17;;;0.93;;
77800;SDS011;66991;50.058;14.454;2023-11-19T14:15:09;2.85;;;1.15;;
77800;SDS011;66991;50.058;14.454;2023-11-19T14:17:37;3.22;;;0.93;;
77800;SDS011;66991;50.058;14.454;2023-11-19T14:20:02;3.22;;;0.93;;
77800;SDS011;66991;50.058;14.454;2023-11-19T14:22:41;2.08;;;0.98;;
77800;SDS011;66991;50.058;14.454;2023-11-19T14:25:07;1.92;;;0.90;;
77800;SDS011;66991;50.058;14.454;2023-11-19T14:27:35;1.60;;;0.80;;
77800;SDS011;66991;50.058;14.454;2023-11-19T14:30:07;1.48;;;0.73;;
77800;SDS011;66991;50.058;14.454;2023-11-19T14:32:35;1.52;;;0.75;;
77800;SDS011;66991;50.058;14.454;2023-11-19T14:35:01;1.42;;;0.70;;
77800;SDS011;66991;50.058;14.454;2023-11-19T14:37:28;2.15;;;0.98;;
77800;SDS011;66991;50.058;14.454;2023-11-19T14:39:54;3.22;;;1.08;;
77800;SDS011;66991;50.058;14.454;2023-11-19T14:42:19;1.55;;;0.70;;
77800;SDS011;66991;50.058;14.454;2023-11-19T14:44:44;2.47;;;1.00;;
77800;SDS011;66991;50.058;14.454;2023-11-19T14:47:10;2.95;;;1.05;;
77800;SDS011;66991;50.058;14.454;2023-11-19T14:49:35;2.50;;;1.08;;
77800;SDS011;66991;50.058;14.454;2023-11-19T14:52:02;2.88;;;1.27;;
77800;SDS011;66991;50.058;14.454;2023-11-19T14:54:28;3.28;;;1.50;;
77800;SDS011;66991;50.058;14.454;2023-11-19T14:56:53;3.70;;;1.40;;
77800;SDS011;66991;50.058;14.454;2023-11-19T14:59:19;2.92;;;1.30;;
77800;SDS011;66991;50.058;14.454;2023-11-19T15:01:47;3.45;;;1.33;;
77800;SDS011;66991;50.058;14.454;2023-11-19T15:04:12;2.67;;;1.20;;
77800;SDS011;66991;50.058;14.454;2023-11-19T15:06:38;3.05;;;1.13;;